createdAt,value
2022-08-17T00:00:44.085Z,10.50
2022-08-17T00:03:11.346Z,11.40
2022-08-17T00:05:54.136Z,10.50
2022-08-17T00:08:28.746Z,10.40
2022-08-17T00:10:57.481Z,10.80
2022-08-17T00:13:33.165Z,10.10
2022-08-17T00:16:09.241Z,10.10
2022-08-17T00:18:53.855Z,10.10
2022-08-17T00:21:27.855Z,10.10
2022-08-17T00:24:16.417Z,9.50
2022-08-17T00:26:45.482Z,10.80
2022-08-17T00:29:17.875Z,9.40
2022-08-17T00:31:49.061Z,9.30
2022-08-17T00:34:17.327Z,9.40
2022-08-17T00:36:45.515Z,9.10
2022-08-17T00:39:13.586Z,9.80
2022-08-17T00:41:42.131Z,9.20
2022-08-17T00:44:12.550Z,8.70
2022-08-17T00:46:43.265Z,9.50
2022-08-17T00:49:15.397Z,8.90
2022-08-17T00:51:50.679Z,8.80
2022-08-17T00:54:24.326Z,8.70
2022-08-17T00:56:57.313Z,9.10
2022-08-17T00:59:34.955Z,9.50
2022-08-17T01:02:03.899Z,10.50
2022-08-17T01:04:33.835Z,10.60
2022-08-17T01:07:04.033Z,11.30
2022-08-17T01:09:49.489Z,15.10
2022-08-17T01:12:17.598Z,13.90
2022-08-17T01:14:45.949Z,12.00
2022-08-17T01:17:14.613Z,12.10
2022-08-17T01:19:43.954Z,11.60
2022-08-17T01:22:11.951Z,11.40
2022-08-17T01:24:46.272Z,12.20
2022-08-17T01:27:18.561Z,11.70
2022-08-17T01:29:52.347Z,10.70
2022-08-17T01:32:20.765Z,11.70
2022-08-17T01:34:51.003Z,11.10
2022-08-17T01:37:27.886Z,11.00
2022-08-17T01:40:36.161Z,11.20
2022-08-17T01:43:14.667Z,11.30
2022-08-17T01:45:46.612Z,10.60
2022-08-17T01:48:15.439Z,10.10
2022-08-17T01:50:45.210Z,10.90
2022-08-17T01:53:20.605Z,10.60
2022-08-17T01:55:59.174Z,12.90
2022-08-17T01:58:27.362Z,14.40
2022-08-17T02:01:00.721Z,15.30
2022-08-17T02:03:30.394Z,13.70
2022-08-17T02:05:58.833Z,13.50
2022-08-17T02:08:37.305Z,11.70
2022-08-17T02:11:14.736Z,11.40
2022-08-17T02:13:45.795Z,11.70
2022-08-17T02:16:14.353Z,12.10
2022-08-17T02:18:42.594Z,11.80
2022-08-17T02:21:10.823Z,12.20
2022-08-17T02:23:46.664Z,12.20
2022-08-17T02:26:25.701Z,11.70
2022-08-17T02:28:55.183Z,11.40
2022-08-17T02:31:23.298Z,12.40
2022-08-17T02:33:56.789Z,12.00
2022-08-17T02:36:37.056Z,11.00
2022-08-17T02:39:07.036Z,11.50
2022-08-17T02:41:36.688Z,12.00
2022-08-17T02:44:06.093Z,12.40
2022-08-17T02:46:34.439Z,12.00
2022-08-17T02:49:03.426Z,11.70
2022-08-17T02:51:31.982Z,12.00
2022-08-17T02:54:41.430Z,11.20
2022-08-17T02:56:48.093Z,11.70
2022-08-17T02:59:16.266Z,11.60
2022-08-17T03:01:44.375Z,11.30
2022-08-17T03:04:12.516Z,12.30
2022-08-17T03:06:40.578Z,13.70
2022-08-17T03:09:08.717Z,13.50
2022-08-17T03:11:36.934Z,14.80
2022-08-17T03:14:04.995Z,15.10
2022-08-17T03:16:33.085Z,15.40
2022-08-17T03:19:02.776Z,14.60
2022-08-17T03:21:30.791Z,13.40
2022-08-17T03:23:58.996Z,13.50
2022-08-17T03:26:29.727Z,12.80
2022-08-17T03:28:58.294Z,13.60
2022-08-17T03:31:26.446Z,12.20
2022-08-17T03:33:54.436Z,12.50
2022-08-17T03:36:22.757Z,12.20
2022-08-17T03:38:51.067Z,12.40
2022-08-17T03:41:19.202Z,12.70
2022-08-17T03:43:47.291Z,12.80
2022-08-17T03:46:35.463Z,12.60
2022-08-17T03:49:25.175Z,16.00
2022-08-17T03:52:16.098Z,16.00
2022-08-17T03:55:03.930Z,14.40
2022-08-17T03:57:32.593Z,15.20
2022-08-17T04:00:00.685Z,15.30
2022-08-17T04:02:34.185Z,16.10
2022-08-17T04:05:02.504Z,15.60
2022-08-17T04:07:31.759Z,15.80
2022-08-17T04:10:00.591Z,17.40
2022-08-17T04:12:31.231Z,17.20
2022-08-17T04:14:59.659Z,17.20
2022-08-17T04:17:29.483Z,17.00
2022-08-17T04:19:57.858Z,16.90
2022-08-17T04:22:30.205Z,17.30
2022-08-17T04:25:04.902Z,15.10
2022-08-17T04:27:33.068Z,15.30
2022-08-17T04:30:01.849Z,15.90
2022-08-17T04:33:04.596Z,16.90
2022-08-17T04:35:23.920Z,15.80
2022-08-17T04:37:52.328Z,16.00
2022-08-17T04:40:40.311Z,14.80
2022-08-17T04:43:12.433Z,14.40
2022-08-17T04:45:55.239Z,14.60
2022-08-17T04:48:36.138Z,14.10
2022-08-17T04:51:12.020Z,13.80
2022-08-17T04:53:42.951Z,12.60
2022-08-17T04:56:16.923Z,12.40
2022-08-17T04:58:49.866Z,12.60
2022-08-17T05:01:23.676Z,12.80
2022-08-17T05:03:54.914Z,11.70
2022-08-17T05:06:23.765Z,11.80
2022-08-17T05:08:51.902Z,11.70
2022-08-17T05:11:20.571Z,12.00
2022-08-17T05:13:50.440Z,10.30
2022-08-17T05:16:21.147Z,10.70
2022-08-17T05:18:50.090Z,10.60
2022-08-17T05:21:19.598Z,10.00
2022-08-17T05:23:54.983Z,11.20
2022-08-17T05:26:27.563Z,9.90
2022-08-17T05:29:00.367Z,10.20
2022-08-17T05:31:31.485Z,10.40
2022-08-17T05:33:59.756Z,10.50
2022-08-17T05:36:41.622Z,10.90
2022-08-17T05:39:16.414Z,10.90
2022-08-17T05:41:48.443Z,11.20
2022-08-17T05:44:17.461Z,10.50
2022-08-17T05:46:51.140Z,10.90
2022-08-17T05:49:27.333Z,11.10
2022-08-17T05:52:07.140Z,11.10
2022-08-17T05:54:56.640Z,11.10
2022-08-17T05:57:54.186Z,11.50
2022-08-17T06:00:30.529Z,11.40
2022-08-17T06:03:17.997Z,10.70
2022-08-17T06:05:54.229Z,11.00
2022-08-17T06:08:42.771Z,11.20
2022-08-17T06:11:43.334Z,10.80
2022-08-17T06:14:29.319Z,11.30
2022-08-17T06:17:03.416Z,10.70
2022-08-17T06:19:38.539Z,11.70
2022-08-17T06:22:08.976Z,10.70
2022-08-17T06:24:37.045Z,10.50
2022-08-17T06:27:18.327Z,10.70
2022-08-17T06:30:15.399Z,9.40
2022-08-17T06:32:46.558Z,9.90
2022-08-17T06:35:19.766Z,10.10
2022-08-17T06:38:07.132Z,10.20
2022-08-17T06:40:46.134Z,10.50
2022-08-17T06:43:26.297Z,10.40
2022-08-17T06:45:59.914Z,10.10
2022-08-17T06:49:09.249Z,10.30
2022-08-17T06:51:46.540Z,10.20
2022-08-17T06:54:34.720Z,10.80
2022-08-17T06:57:18.810Z,10.40
2022-08-17T07:00:06.251Z,10.60
2022-08-17T07:02:53.524Z,10.90
2022-08-17T07:05:31.929Z,10.30
2022-08-17T07:08:12.038Z,10.80
2022-08-17T07:11:13.285Z,10.50
2022-08-17T07:13:51.443Z,10.80
2022-08-17T07:16:26.533Z,9.80
2022-08-17T07:18:57.542Z,10.40
2022-08-17T07:22:10.898Z,9.90
2022-08-17T07:24:47.883Z,11.00
2022-08-17T07:27:23.834Z,9.80
2022-08-17T07:30:03.758Z,10.50
2022-08-17T07:32:39.735Z,10.00
2022-08-17T07:35:15.389Z,9.30
2022-08-17T07:37:53.546Z,9.80
2022-08-17T07:40:34.433Z,10.10
2022-08-17T07:43:21.982Z,9.50
2022-08-17T07:46:25.660Z,10.00
2022-08-17T07:48:57.373Z,9.60
2022-08-17T07:51:31.607Z,9.40
2022-08-17T07:54:22.714Z,9.50
2022-08-17T07:56:55.089Z,9.00
2022-08-17T07:59:33.613Z,8.90
2022-08-17T08:02:17.251Z,9.90
2022-08-17T08:05:30.655Z,9.80
2022-08-17T08:08:27.369Z,8.50
2022-08-17T08:11:08.361Z,9.20
2022-08-17T08:13:43.942Z,8.70
2022-08-17T08:16:22.917Z,8.70
2022-08-17T08:18:57.097Z,8.20
2022-08-17T08:21:33.343Z,8.70
2022-08-17T08:24:09.845Z,8.80
2022-08-17T08:26:55.555Z,8.10
2022-08-17T08:29:31.191Z,8.10
2022-08-17T08:32:13.789Z,7.80
2022-08-17T08:35:01.406Z,8.30
2022-08-17T08:37:58.671Z,8.60
2022-08-17T08:41:15.754Z,8.10
2022-08-17T08:43:43.865Z,8.00
2022-08-17T08:46:57.927Z,8.40
2022-08-17T08:50:02.624Z,8.20
2022-08-17T08:52:40.350Z,8.00
2022-08-17T08:55:32.546Z,8.10
2022-08-17T08:58:07.837Z,8.60
2022-08-17T09:00:59.084Z,7.90
2022-08-17T09:03:52.761Z,8.00
2022-08-17T09:06:49.356Z,7.80
2022-08-17T09:09:59.668Z,8.60
2022-08-17T09:12:47.754Z,8.00
2022-08-17T09:15:21.137Z,8.40
2022-08-17T09:21:06.118Z,8.30
2022-08-17T09:23:34.050Z,8.90
2022-08-17T09:26:14.527Z,8.60
2022-08-17T09:28:48.448Z,8.10
2022-08-17T09:31:21.763Z,8.60
2022-08-17T09:33:51.411Z,8.40
2022-08-17T09:36:22.681Z,8.40
2022-08-17T09:39:18.635Z,7.70
2022-08-17T09:41:53.901Z,9.20
2022-08-17T09:44:27.303Z,8.50
2022-08-17T09:47:04.322Z,8.60
2022-08-17T09:49:40.860Z,8.20
2022-08-17T09:52:22.014Z,8.80
2022-08-17T09:54:52.726Z,8.70
2022-08-17T09:57:32.134Z,8.70
2022-08-17T10:00:18.969Z,9.10
2022-08-17T10:03:00.781Z,9.40
2022-08-17T10:05:56.856Z,9.20
2022-08-17T10:09:08.417Z,8.50
2022-08-17T10:12:02.692Z,9.30
2022-08-17T10:14:53.559Z,9.20
2022-08-17T10:17:26.350Z,9.10
2022-08-17T10:20:03.365Z,8.80
2022-08-17T10:23:20.705Z,9.40
2022-08-17T10:26:15.822Z,8.10
2022-08-17T10:29:03.011Z,8.80
2022-08-17T10:31:43.377Z,9.00
2022-08-17T10:34:30.350Z,8.30
2022-08-17T10:37:20.393Z,8.40
2022-08-17T10:39:52.693Z,8.60
2022-08-17T10:42:33.344Z,9.50
2022-08-17T10:45:16.599Z,9.10
2022-08-17T10:48:07.642Z,9.20
2022-08-17T10:51:00.629Z,8.90
2022-08-17T10:53:31.605Z,8.60
2022-08-17T10:56:11.790Z,8.50
2022-08-17T10:58:57.298Z,8.80
2022-08-17T11:01:34.488Z,8.30
2022-08-17T11:04:43.140Z,8.40
2022-08-17T11:07:45.853Z,8.20
2022-08-17T11:10:42.567Z,8.40
2022-08-17T11:13:47.700Z,8.60
2022-08-17T11:16:57.959Z,8.50
2022-08-17T11:19:43.693Z,8.80
2022-08-17T11:22:22.668Z,8.70
2022-08-17T11:24:54.429Z,8.40
2022-08-17T11:27:25.057Z,8.70
2022-08-17T11:30:02.559Z,9.40
2022-08-17T11:32:52.873Z,8.50
2022-08-17T11:35:23.108Z,9.00
2022-08-17T11:38:00.613Z,8.40
2022-08-17T11:41:07.489Z,9.00
2022-08-17T11:43:56.741Z,8.70
2022-08-17T11:47:17.504Z,9.10
2022-08-17T11:50:15.706Z,9.20
2022-08-17T11:52:47.610Z,8.30
2022-08-17T11:55:38.189Z,9.30
2022-08-17T11:58:32.266Z,9.40
2022-08-17T12:01:07.038Z,9.30
2022-08-17T12:03:35.118Z,10.10
2022-08-17T12:06:17.773Z,9.50
2022-08-17T12:08:55.340Z,9.80
2022-08-17T12:12:11.870Z,9.70
2022-08-17T12:15:10.585Z,10.40
2022-08-17T12:17:42.767Z,10.70
2022-08-17T12:20:29.393Z,10.10
2022-08-17T12:23:12.449Z,10.50
2022-08-17T12:26:07.573Z,10.50
2022-08-17T12:28:38.887Z,11.20
2022-08-17T12:31:16.252Z,11.80
2022-08-17T12:33:46.140Z,11.50
2022-08-17T12:36:19.130Z,11.60
2022-08-17T12:39:12.842Z,11.90
2022-08-17T12:41:46.958Z,11.60
2022-08-17T12:44:18.688Z,11.60
2022-08-17T12:46:58.820Z,13.30
2022-08-17T12:49:38.458Z,12.20
2022-08-17T12:52:12.350Z,13.60
2022-08-17T12:55:07.060Z,13.40
2022-08-17T12:57:42.640Z,13.80
2022-08-17T13:00:34.118Z,13.30
2022-08-17T13:03:21.496Z,13.80
2022-08-17T13:05:52.292Z,13.10
2022-08-17T13:08:36.121Z,13.30
2022-08-17T13:11:19.130Z,13.20
2022-08-17T13:13:54.524Z,13.70
2022-08-17T13:16:26.691Z,13.50
2022-08-17T13:19:07.346Z,13.90
2022-08-17T13:21:37.830Z,13.30
2022-08-17T13:24:17.637Z,13.00
2022-08-17T13:26:51.453Z,13.10
2022-08-17T13:29:25.450Z,13.30
2022-08-17T13:32:13.254Z,13.50
2022-08-17T13:35:15.085Z,13.30
2022-08-17T13:37:58.142Z,12.90
2022-08-17T13:40:31.128Z,12.90
2022-08-17T13:42:59.347Z,12.20
2022-08-17T13:45:35.245Z,13.10
2022-08-17T13:48:06.472Z,12.60
2022-08-17T13:50:41.232Z,11.50
2022-08-17T13:53:40.244Z,12.90
2022-08-17T13:56:37.279Z,12.60
2022-08-17T13:59:04.898Z,12.20
2022-08-17T14:01:34.292Z,11.60
2022-08-17T14:04:07.019Z,11.70
2022-08-17T14:06:53.644Z,11.50
2022-08-17T14:09:36.842Z,12.70
2022-08-17T14:12:10.786Z,11.60
2022-08-17T14:14:39.664Z,11.30
2022-08-17T14:17:07.986Z,11.20
2022-08-17T14:19:36.932Z,10.60
2022-08-17T14:22:09.045Z,10.70
2022-08-17T14:24:44.704Z,10.80
2022-08-17T14:27:12.847Z,10.20
2022-08-17T14:29:41.434Z,10.40
2022-08-17T14:32:21.380Z,10.60
2022-08-17T14:34:49.789Z,10.80
2022-08-17T14:37:20.025Z,10.50
2022-08-17T14:39:48.299Z,10.40
2022-08-17T14:42:18.752Z,10.90
2022-08-17T14:44:46.692Z,10.60
2022-08-17T14:47:15.066Z,10.90
2022-08-17T14:49:43.790Z,10.30
2022-08-17T14:52:21.818Z,10.00
2022-08-17T14:54:51.661Z,10.00
2022-08-17T14:57:33.140Z,10.70
2022-08-17T15:00:03.797Z,10.20
2022-08-17T15:02:53.800Z,10.60
2022-08-17T15:05:26.061Z,9.70
2022-08-17T15:07:54.092Z,9.40
2022-08-17T15:10:23.408Z,9.70
2022-08-17T15:12:53.985Z,10.30
2022-08-17T15:15:23.014Z,10.10
2022-08-17T15:17:51.682Z,9.70
2022-08-17T15:20:22.988Z,10.40
2022-08-17T15:22:55.174Z,10.00
2022-08-17T15:25:25.577Z,9.90
2022-08-17T15:27:55.866Z,10.20
2022-08-17T15:30:25.997Z,10.50
2022-08-17T15:32:56.684Z,10.60
2022-08-17T15:35:29.317Z,10.80
2022-08-17T15:38:10.618Z,10.70
2022-08-17T15:40:44.106Z,10.80
2022-08-17T15:43:15.766Z,10.30
2022-08-17T15:45:44.664Z,10.40
2022-08-17T15:48:44.861Z,10.00
2022-08-17T15:51:15.071Z,11.00
2022-08-17T15:53:46.034Z,10.30
2022-08-17T15:56:15.217Z,10.60
2022-08-17T15:58:44.821Z,10.00
2022-08-17T16:01:18.373Z,9.60
2022-08-17T16:04:04.732Z,10.80
2022-08-17T16:06:35.475Z,10.70
2022-08-17T16:09:04.131Z,11.20
2022-08-17T16:11:32.018Z,11.50
2022-08-17T16:13:59.899Z,11.20
2022-08-17T16:16:31.482Z,10.60
2022-08-17T16:18:59.502Z,11.10
2022-08-17T16:21:31.237Z,10.50
2022-08-17T16:24:12.833Z,10.30
2022-08-17T16:26:42.865Z,9.90
2022-08-17T16:29:10.991Z,11.00
2022-08-17T16:31:39.291Z,10.40
2022-08-17T16:34:17.505Z,11.00
2022-08-17T16:36:53.598Z,11.30
2022-08-17T16:39:29.190Z,10.50
2022-08-17T16:41:57.690Z,11.30
2022-08-17T16:44:29.081Z,11.30
2022-08-17T16:46:57.575Z,10.40
2022-08-17T16:49:35.728Z,11.20
2022-08-17T16:52:10.422Z,11.50
2022-08-17T16:54:43.962Z,11.50
2022-08-17T16:57:14.412Z,10.70
2022-08-17T16:59:47.827Z,10.80
2022-08-17T17:02:24.499Z,10.50
2022-08-17T17:05:02.649Z,10.90
2022-08-17T17:07:37.184Z,10.40
2022-08-17T17:10:10.043Z,10.30
2022-08-17T17:13:02.745Z,10.90
2022-08-17T17:15:36.608Z,10.80
2022-08-17T17:18:06.732Z,10.90
2022-08-17T17:20:47.791Z,10.80
2022-08-17T17:23:34.409Z,10.50
2022-08-17T17:26:17.482Z,11.00
2022-08-17T17:28:56.797Z,11.00
2022-08-17T17:31:33.660Z,11.20
2022-08-17T17:34:04.889Z,10.70
2022-08-17T17:36:54.215Z,10.70
2022-08-17T17:39:33.591Z,11.10
2022-08-17T17:42:10.045Z,10.40
2022-08-17T17:44:53.581Z,10.40
2022-08-17T17:47:21.705Z,11.30
2022-08-17T17:49:49.856Z,11.60
2022-08-17T17:52:46.570Z,12.30
2022-08-17T17:55:33.803Z,13.20
2022-08-17T17:58:13.887Z,11.70
2022-08-17T18:00:49.508Z,11.50
2022-08-17T18:03:41.818Z,11.20
2022-08-17T18:06:34.673Z,10.90
2022-08-17T18:09:20.870Z,11.60
2022-08-17T18:12:08.800Z,10.80
2022-08-17T18:14:43.309Z,11.20
2022-08-17T18:17:11.223Z,11.30
2022-08-17T18:19:40.008Z,11.10
2022-08-17T18:22:15.633Z,11.00
2022-08-17T18:24:47.810Z,11.20
2022-08-17T18:27:21.215Z,10.70
2022-08-17T18:29:54.632Z,11.00
2022-08-17T18:32:41.545Z,10.90
2022-08-17T18:35:09.337Z,11.70
2022-08-17T18:37:49.508Z,10.90
2022-08-17T18:40:17.696Z,11.20
2022-08-17T18:43:04.712Z,10.70
2022-08-17T18:45:47.658Z,10.70
2022-08-17T18:48:29.547Z,10.90
2022-08-17T18:51:26.745Z,10.30
2022-08-17T18:54:21.383Z,11.50
2022-08-17T18:56:56.310Z,11.40
2022-08-17T18:59:45.060Z,11.10
2022-08-17T19:02:38.709Z,11.10
2022-08-17T19:05:26.963Z,11.40
2022-08-17T19:08:20.347Z,12.00
2022-08-17T19:10:56.319Z,11.50
2022-08-17T19:13:36.501Z,11.20
2022-08-17T19:16:15.914Z,12.30
2022-08-17T19:18:50.938Z,11.70
2022-08-17T19:21:24.149Z,12.20
2022-08-17T19:23:54.373Z,12.00
2022-08-17T19:26:54.502Z,12.20
2022-08-17T19:29:27.013Z,12.50
2022-08-17T19:31:59.680Z,12.50
2022-08-17T19:34:36.422Z,12.40
2022-08-17T19:37:36.933Z,12.50
2022-08-17T19:40:07.789Z,12.00
2022-08-17T19:42:51.067Z,12.60
2022-08-17T19:45:34.604Z,13.30
2022-08-17T19:48:18.500Z,13.80
2022-08-17T19:51:14.164Z,13.80
2022-08-17T19:54:06.644Z,13.40
2022-08-17T19:56:42.744Z,13.80
2022-08-17T19:59:35.789Z,15.60
2022-08-17T20:02:31.317Z,15.70
2022-08-17T20:05:05.228Z,15.80
2022-08-17T20:07:52.866Z,15.40
2022-08-17T20:10:30.753Z,15.90
2022-08-17T20:13:04.494Z,15.90
2022-08-17T20:15:37.921Z,15.80
2022-08-17T20:18:13.790Z,16.70
2022-08-17T20:20:47.039Z,15.90
2022-08-17T20:23:53.943Z,15.10
2022-08-17T20:26:43.599Z,16.10
2022-08-17T20:29:37.586Z,15.60
2022-08-17T20:32:18.997Z,14.60
2022-08-17T20:34:48.180Z,15.80
2022-08-17T20:37:16.325Z,16.40
2022-08-17T20:40:05.031Z,16.10
2022-08-17T20:42:34.017Z,16.40
2022-08-17T20:45:21.864Z,17.30
2022-08-17T20:48:22.099Z,16.70
2022-08-17T20:50:51.941Z,16.10
2022-08-17T20:53:47.818Z,15.40
2022-08-17T20:56:43.847Z,15.90
2022-08-17T20:59:20.826Z,15.30
2022-08-17T21:02:17.571Z,16.40
2022-08-17T21:04:50.252Z,16.70
2022-08-17T21:07:42.822Z,16.40
2022-08-17T21:10:24.139Z,17.10
2022-08-17T21:13:14.116Z,17.10
2022-08-17T21:16:07.976Z,17.00
2022-08-17T21:18:42.142Z,17.60
2022-08-17T21:21:25.081Z,17.20
2022-08-17T21:24:35.765Z,17.00
2022-08-17T21:27:09.790Z,17.10
2022-08-17T21:30:06.804Z,17.10
2022-08-17T21:32:41.868Z,18.00
2022-08-17T21:35:44.814Z,17.90
2022-08-17T21:38:16.208Z,18.40
2022-08-17T21:40:50.092Z,18.10
2022-08-17T21:43:32.630Z,16.60
2022-08-17T21:46:22.150Z,17.50
2022-08-17T21:48:54.565Z,18.10
2022-08-17T21:51:26.495Z,18.10
2022-08-17T21:53:58.750Z,18.00
2022-08-17T21:56:38.701Z,17.30
2022-08-17T21:59:37.564Z,18.80
2022-08-17T22:02:30.524Z,17.60
2022-08-17T22:05:00.511Z,17.60
2022-08-17T22:07:48.807Z,17.80
2022-08-17T22:10:39.525Z,18.10
2022-08-17T22:13:17.193Z,16.50
2022-08-17T22:16:15.301Z,14.20
2022-08-17T22:18:46.278Z,14.50
2022-08-17T22:21:17.283Z,16.90
2022-08-17T22:24:06.242Z,18.40
2022-08-17T22:27:02.445Z,17.70
2022-08-17T22:29:57.027Z,17.80
2022-08-17T22:32:40.060Z,18.00
2022-08-17T22:35:30.147Z,18.20
2022-08-17T22:38:18.134Z,18.70
2022-08-17T22:40:52.701Z,17.60
2022-08-17T22:43:26.342Z,17.70
2022-08-17T22:45:58.264Z,19.00
2022-08-17T22:48:29.620Z,19.40
2022-08-17T22:51:13.986Z,19.70
2022-08-17T22:54:13.731Z,18.20
2022-08-17T22:57:31.614Z,18.50
2022-08-17T23:00:01.605Z,18.30
2022-08-17T23:02:34.805Z,18.90
2022-08-17T23:05:13.170Z,17.80
2022-08-17T23:07:43.348Z,18.20
2022-08-17T23:10:12.447Z,19.40
2022-08-17T23:12:40.841Z,18.50
2022-08-17T23:15:14.510Z,18.90
2022-08-17T23:17:43.109Z,18.50
2022-08-17T23:20:15.215Z,18.70
2022-08-17T23:22:52.239Z,19.30
2022-08-17T23:25:31.690Z,14.10
2022-08-17T23:28:04.252Z,15.90
2022-08-17T23:30:37.358Z,15.20
2022-08-17T23:33:10.651Z,15.00
2022-08-17T23:35:39.931Z,15.70
2022-08-17T23:38:11.004Z,13.10
2022-08-17T23:40:40.155Z,13.60
2022-08-17T23:43:24.138Z,11.70
2022-08-17T23:46:00.811Z,11.30
2022-08-17T23:48:35.823Z,10.30
2022-08-17T23:51:09.896Z,11.60
2022-08-17T23:53:44.838Z,12.30
2022-08-17T23:56:13.272Z,13.50
2022-08-17T23:58:43.428Z,13.00
